Engels heliport

EBEN · Antwerpen, Flanders, 比利时

罗盘
风向 的 风向 280° 直升机
风: 7 kt, 3 beaufort
0 ft 1.000 2.000 3.000 4.000 5.000
Cloud Cloud Cloud Cloud
SCT 600
Cloud Cloud Cloud Cloud Cloud Cloud
BKN 1.200
METAR EBAW 211150Z 28007KT 4000 RA SCT006 BKN012 16/15 Q1013 RESHRA BECMG 6000 -RA SCT008 BKN020

METAR Engels heliport - EBEN

Engels heliport是,比利时中的直升机场。 该机场位于纬度51,21167和经度4,58083。 本场的ICAO机场代码为EBEN。 机场在Bruxelles FIR中。

该航空气象观测是针对安特衛普國際機場在2024年6月21日 13:50, 当地时间进行的。

机场观察

风向为280°,速度为7 kt。

可见度为4 km。

有疏云,零星散落的云朵在600 ft的高度 和 碎云在1.200 ft的高度。 破损或更高的上限为1.200 ft。

当前天气为雨。 温度和风寒是16 °C。 露点为15 °C,相对湿度为94%。 海平面上的气压为1013 hPa (QNH)。 最近是阵雨 雨。

发展趋势

  • 变得

    可变方向的风很小或没有。 可见性变为6 km。 重大天气:光 雨。 疏云,零星散落的云朵在800 ft的高度 和 碎云在2.000 ft的高度.

白天

今天,太阳从05:26升起,在22:01降落。 这适用于Engels heliport,世界夏令时可能有所不同。 当地时间与世界标准时间之间的时差为+2 小时。 夏令时目前正在进行中。

公司介绍

我们没有关于这个机场的公司信息。

体会

到Vliegles.nl去找飞行课程,跳伞和其他飞行体验。 浏览页面,了解Engels heliport附近所有可用的活动。 你也可以使用搜索功能来寻找你所在地附近的特定飞行课程、跳伞或其他飞行体验。

乌云

600 ft SCT 疏云,零星散落的云朵
1.200 ft BKN 碎云
800 ft SCT 变得 疏云,零星散落的云朵
2.000 ft BKN 变得 碎云

温度 & 天气

天气
最近的 阵雨 雨
温度 16 °C
露点 15 °C
相对湿度 94%
Kp-index 0 (0-9)

白天

日出
05:26
中午
13:44
日落
22:01 (7:48)

小工具

你想在你的网站上有一个关于Engels heliport的当前航空天气(METAR)的小部件吗?

显示HTML代码
报告变更